createdAt,value
2023-04-08T00:00:26.168Z,101630.78
2023-04-08T00:02:53.997Z,101632.91
2023-04-08T00:05:23.179Z,101638.94
2023-04-08T00:07:52.885Z,101635.16
2023-04-08T00:10:20.965Z,101626.25
2023-04-08T00:12:49.255Z,101634.47
2023-04-08T00:15:16.917Z,101634.97
2023-04-08T00:17:45.422Z,101639.53
2023-04-08T00:20:13.189Z,101630.91
2023-04-08T00:22:42.321Z,101638.75
2023-04-08T00:25:10.528Z,101634.97
2023-04-08T00:27:38.239Z,101634.75
2023-04-08T00:30:09.552Z,101634.34
2023-04-08T00:32:37.325Z,101632.47
2023-04-08T00:35:05.797Z,101638.31
2023-04-08T00:37:33.603Z,101645.75
2023-04-08T00:40:03.100Z,101643.47
2023-04-08T00:42:31.785Z,101631.28
2023-04-08T00:44:59.464Z,101634.97
2023-04-08T00:47:27.385Z,101632.16
2023-04-08T00:49:55.180Z,101643.97
2023-04-08T00:52:24.885Z,101630.78
2023-04-08T00:54:52.622Z,101635.16
2023-04-08T00:57:21.865Z,101628.84
2023-04-08T00:59:49.561Z,101629.75
2023-04-08T01:02:23.982Z,101635.59
2023-04-08T01:05:01.305Z,101634.69
2023-04-08T01:07:32.403Z,101644.00
2023-04-08T01:10:04.269Z,101635.38
2023-04-08T01:12:37.797Z,101640.53
2023-04-08T01:15:07.709Z,101642.34
2023-04-08T01:17:38.346Z,101643.41
2023-04-08T01:20:08.490Z,101637.56
2023-04-08T01:22:56.503Z,101651.84
2023-04-08T01:25:28.231Z,101663.72
2023-04-08T01:27:59.532Z,101654.22
2023-04-08T01:30:30.312Z,101656.88
2023-04-08T01:32:58.981Z,101658.50
2023-04-08T01:35:27.173Z,101649.44
2023-04-08T01:37:56.803Z,101646.50
2023-04-08T01:40:24.992Z,101652.41
2023-04-08T01:42:55.570Z,101655.59
2023-04-08T01:45:24.795Z,101652.09
2023-04-08T01:47:54.126Z,101663.72
2023-04-08T01:50:22.426Z,101665.53
2023-04-08T01:52:53.666Z,101663.91
2023-04-08T01:55:22.835Z,101661.97
2023-04-08T01:57:53.786Z,101657.38
2023-04-08T02:00:30.427Z,101651.84
2023-04-08T02:02:59.680Z,101651.53
2023-04-08T02:05:27.600Z,101654.91
2023-04-08T02:07:55.428Z,101661.16
2023-04-08T02:10:23.192Z,101665.84
2023-04-08T02:12:51.309Z,101664.72
2023-04-08T02:15:19.165Z,101670.88
2023-04-08T02:17:51.650Z,101671.91
2023-04-08T02:20:22.705Z,101673.47
2023-04-08T02:22:59.144Z,101673.47
2023-04-08T02:25:28.561Z,101675.94
2023-04-08T02:27:57.133Z,101676.25
2023-04-08T02:30:28.874Z,101672.66
2023-04-08T02:32:59.332Z,101680.31
2023-04-08T02:35:28.633Z,101681.78
2023-04-08T02:37:56.696Z,101682.97
2023-04-08T02:40:36.970Z,101681.56
2023-04-08T02:43:04.905Z,101688.41
2023-04-08T02:45:34.309Z,101689.50
2023-04-08T02:48:03.545Z,101695.88
2023-04-08T02:50:31.319Z,101695.22
2023-04-08T02:52:59.145Z,101692.31
2023-04-08T02:55:26.923Z,101694.59
2023-04-08T02:57:54.654Z,101698.63
2023-04-08T03:00:22.521Z,101695.34
2023-04-08T03:02:50.388Z,101701.06
2023-04-08T03:05:19.761Z,101689.69
2023-04-08T03:07:47.475Z,101698.13
2023-04-08T03:10:15.557Z,101695.66
2023-04-08T03:12:43.256Z,101698.25
2023-04-08T03:15:11.388Z,101700.13
2023-04-08T03:17:39.137Z,101693.66
2023-04-08T03:20:08.252Z,101705.78
2023-04-08T03:22:38.021Z,101707.34
2023-04-08T03:25:06.462Z,101716.28
2023-04-08T03:27:34.175Z,101716.41
2023-04-08T03:30:01.958Z,101721.66
2023-04-08T03:32:29.828Z,101719.50
2023-04-08T03:34:57.522Z,101719.06
2023-04-08T03:37:25.433Z,101723.13
2023-04-08T03:39:55.065Z,101720.31
2023-04-08T03:42:22.998Z,101726.16
2023-04-08T03:44:50.831Z,101724.22
2023-04-08T03:47:18.697Z,101724.19
2023-04-08T03:49:46.552Z,101728.19
2023-04-08T03:52:15.794Z,101730.31
2023-04-08T03:54:43.909Z,101736.72
2023-04-08T03:57:13.224Z,101733.56
2023-04-08T03:59:41.170Z,101742.06
2023-04-08T04:02:08.968Z,101738.50
2023-04-08T04:04:37.132Z,101753.03
2023-04-08T04:07:05.018Z,101745.19
2023-04-08T04:09:32.809Z,101749.00
2023-04-08T04:12:00.655Z,101749.25
2023-04-08T04:14:29.718Z,101749.44
2023-04-08T04:16:57.417Z,101741.84
2023-04-08T04:19:25.339Z,101748.06
2023-04-08T04:21:52.996Z,101745.09
2023-04-08T04:24:20.710Z,101755.97
2023-04-08T04:26:48.426Z,101761.78
2023-04-08T04:29:16.146Z,101765.34
2023-04-08T04:31:46.262Z,101769.50
2023-04-08T04:34:14.122Z,101765.56
2023-04-08T04:36:41.866Z,101774.09
2023-04-08T04:39:09.694Z,101768.06
2023-04-08T04:41:40.539Z,101772.97
2023-04-08T04:44:08.379Z,101776.44
2023-04-08T04:46:36.208Z,101779.25
2023-04-08T04:49:05.369Z,101783.97
2023-04-08T04:51:33.336Z,101788.00
2023-04-08T04:54:01.197Z,101781.31
2023-04-08T04:56:28.973Z,101785.66
2023-04-08T04:58:56.676Z,101788.44
2023-04-08T05:01:24.528Z,101790.00
2023-04-08T05:03:52.258Z,101788.44
2023-04-08T05:06:21.475Z,101800.09
2023-04-08T05:08:49.643Z,101794.28
2023-04-08T05:11:18.368Z,101790.25
2023-04-08T05:13:46.460Z,101796.78
2023-04-08T05:16:14.318Z,101809.41
2023-04-08T05:18:42.005Z,101808.41
2023-04-08T05:21:09.833Z,101802.81
2023-04-08T05:23:38.982Z,101803.91
2023-04-08T05:26:08.744Z,101798.75
2023-04-08T05:28:37.181Z,101798.41
2023-04-08T05:31:05.004Z,101803.91
2023-04-08T05:33:32.765Z,101802.88
2023-04-08T05:36:00.709Z,101807.00
2023-04-08T05:38:28.390Z,101822.28
2023-04-08T05:40:57.619Z,101828.91
2023-04-08T05:43:25.404Z,101829.91
2023-04-08T05:45:53.194Z,101842.47
2023-04-08T05:48:21.047Z,101843.31
2023-04-08T05:50:51.800Z,101835.22
2023-04-08T05:53:19.541Z,101841.28
2023-04-08T05:55:47.348Z,101848.44
2023-04-08T05:58:17.196Z,101843.78
2023-04-08T06:00:44.933Z,101845.34
2023-04-08T06:03:13.095Z,101842.41
2023-04-08T06:05:41.428Z,101838.91
2023-04-08T06:08:09.127Z,101830.00
2023-04-08T06:10:37.172Z,101840.06
2023-04-08T06:13:07.026Z,101846.19
2023-04-08T06:15:36.109Z,101851.34
2023-04-08T06:18:03.811Z,101855.38
2023-04-08T06:20:31.607Z,101850.91
2023-04-08T06:22:59.304Z,101859.19
2023-04-08T06:25:27.303Z,101856.06
2023-04-08T06:27:55.062Z,101853.44
2023-04-08T06:30:23.114Z,101858.19
2023-04-08T06:32:52.269Z,101868.22
2023-04-08T06:35:20.326Z,101866.78
2023-04-08T06:37:48.130Z,101868.41
2023-04-08T06:40:16.282Z,101871.38
2023-04-08T06:42:44.533Z,101878.53
2023-04-08T06:45:13.033Z,101879.38
2023-04-08T06:47:41.564Z,101886.13
2023-04-08T06:50:11.551Z,101894.28
2023-04-08T06:52:39.338Z,101885.41
2023-04-08T06:55:08.019Z,101893.69
2023-04-08T06:57:35.912Z,101898.47
2023-04-08T07:00:03.754Z,101900.66
2023-04-08T07:02:31.760Z,101899.50
2023-04-08T07:04:59.548Z,101901.69
2023-04-08T07:07:28.620Z,101908.66
2023-04-08T07:09:56.549Z,101910.44
2023-04-08T07:12:24.370Z,101917.38
2023-04-08T07:14:53.455Z,101917.81
2023-04-08T07:17:21.353Z,101903.19
2023-04-08T07:19:58.258Z,101922.00
2023-04-08T07:22:26.333Z,101920.06
2023-04-08T07:24:55.510Z,101931.94
2023-04-08T07:27:23.370Z,101931.72
2023-04-08T07:29:54.932Z,101928.84
2023-04-08T07:32:23.625Z,101941.66
2023-04-08T07:34:51.449Z,101946.88
2023-04-08T07:37:19.202Z,101945.66
2023-04-08T07:39:47.077Z,101943.06
2023-04-08T07:42:16.630Z,101950.03
2023-04-08T07:44:44.406Z,101958.06
2023-04-08T07:47:12.663Z,101958.19
2023-04-08T07:49:43.470Z,101959.19
2023-04-08T07:52:11.260Z,101956.28
2023-04-08T07:54:41.738Z,101952.41
2023-04-08T07:57:09.572Z,101958.78
2023-04-08T07:59:39.207Z,101962.97
2023-04-08T08:02:06.976Z,101964.94
2023-04-08T08:04:35.064Z,101960.91
2023-04-08T08:07:02.969Z,101968.78
2023-04-08T08:09:32.171Z,101971.97
2023-04-08T08:12:00.149Z,101972.38
2023-04-08T08:14:27.906Z,101974.38
2023-04-08T08:16:57.157Z,101976.97
2023-04-08T08:19:24.907Z,101975.66
2023-04-08T08:21:53.217Z,101987.44
2023-04-08T08:24:23.327Z,101981.56
2023-04-08T08:26:51.146Z,101991.19
2023-04-08T08:29:18.852Z,101981.25
2023-04-08T08:31:48.515Z,101992.69
2023-04-08T08:34:17.756Z,101986.22
2023-04-08T08:36:45.517Z,101992.16
2023-04-08T08:39:13.269Z,102001.44
2023-04-08T08:41:42.257Z,102007.94
2023-04-08T08:44:11.023Z,102003.75
2023-04-08T08:46:44.134Z,101998.16
2023-04-08T08:49:12.700Z,101999.41
2023-04-08T08:51:43.042Z,102002.28
2023-04-08T08:54:10.872Z,102004.66
2023-04-08T08:56:38.968Z,101999.44
2023-04-08T08:59:09.478Z,102005.28
2023-04-08T09:01:38.800Z,102017.47
2023-04-08T09:04:12.224Z,102009.69
2023-04-08T09:06:40.679Z,102014.50
2023-04-08T09:09:13.168Z,102020.53
2023-04-08T09:11:42.178Z,102021.94
2023-04-08T09:14:22.721Z,102028.88
2023-04-08T09:16:51.606Z,102029.38
2023-04-08T09:19:20.239Z,102035.59
2023-04-08T09:22:06.456Z,102035.88
2023-04-08T09:24:37.112Z,102038.59
2023-04-08T09:27:06.134Z,102040.84
2023-04-08T09:29:37.347Z,102043.47
2023-04-08T09:32:07.113Z,102046.47
2023-04-08T09:34:34.931Z,102047.50
2023-04-08T09:37:03.010Z,102047.63
2023-04-08T09:39:32.134Z,102045.91
2023-04-08T09:42:06.809Z,102051.81
2023-04-08T09:44:36.871Z,102059.56
2023-04-08T09:47:11.366Z,102053.34
2023-04-08T09:49:43.450Z,102047.09
2023-04-08T09:52:14.781Z,102047.63
2023-04-08T09:54:49.137Z,102047.78
2023-04-08T09:57:23.767Z,102049.94
2023-04-08T09:59:58.766Z,102035.78
2023-04-08T10:02:39.462Z,102033.06
2023-04-08T10:05:09.432Z,102026.03
2023-04-08T10:07:37.408Z,102037.88
2023-04-08T10:10:06.884Z,102042.91
2023-04-08T10:12:37.453Z,102045.38
2023-04-08T10:15:24.900Z,102041.31
2023-04-08T10:17:53.221Z,102041.13
2023-04-08T10:20:42.856Z,102034.81
2023-04-08T10:23:13.286Z,102037.44
2023-04-08T10:25:42.372Z,102041.94
2023-04-08T10:28:27.506Z,102040.94
2023-04-08T10:30:57.367Z,102041.72
2023-04-08T10:33:34.619Z,102040.78
2023-04-08T10:36:11.336Z,102035.53
2023-04-08T10:38:39.539Z,102033.44
2023-04-08T10:41:07.347Z,102028.66
2023-04-08T10:43:37.616Z,102029.97
2023-04-08T10:46:06.413Z,102033.22
2023-04-08T10:48:34.268Z,102028.50
2023-04-08T10:51:03.703Z,102032.91
2023-04-08T10:53:33.496Z,102036.69
2023-04-08T10:56:08.050Z,102034.78
2023-04-08T10:58:37.910Z,102031.25
2023-04-08T11:01:07.634Z,102036.09
2023-04-08T11:03:37.164Z,102033.09
2023-04-08T11:06:06.079Z,102032.75
2023-04-08T11:08:37.745Z,102033.72
2023-04-08T11:11:08.967Z,102029.63
2023-04-08T11:13:42.865Z,102032.72
2023-04-08T11:16:18.102Z,102029.75
2023-04-08T11:18:47.852Z,102019.41
2023-04-08T11:21:16.588Z,102030.31
2023-04-08T11:23:44.481Z,102033.72
2023-04-08T11:26:12.886Z,102034.19
2023-04-08T11:28:42.295Z,102036.63
2023-04-08T11:31:10.466Z,102036.47
2023-04-08T11:33:38.875Z,102043.72
2023-04-08T11:36:08.495Z,102043.38
2023-04-08T11:38:40.333Z,102043.81
2023-04-08T11:41:08.155Z,102043.72
2023-04-08T11:43:37.574Z,102036.81
2023-04-08T11:46:12.465Z,102039.25
2023-04-08T11:48:40.737Z,102039.16
2023-04-08T11:51:09.911Z,102038.53
2023-04-08T11:53:37.969Z,102025.25
2023-04-08T11:56:18.580Z,102031.47
2023-04-08T11:58:46.918Z,102022.22
2023-04-08T12:01:16.305Z,102015.84
2023-04-08T12:03:56.640Z,102019.13
2023-04-08T12:06:27.651Z,102012.72
2023-04-08T12:08:56.470Z,102012.25
2023-04-08T12:11:24.720Z,102009.44
2023-04-08T12:13:55.495Z,102011.63
2023-04-08T12:16:24.731Z,102011.16
2023-04-08T12:18:52.613Z,102005.84
2023-04-08T12:21:20.466Z,102002.81
2023-04-08T12:23:48.635Z,102007.97
2023-04-08T12:26:16.677Z,102009.44
2023-04-08T12:28:44.519Z,102017.88
2023-04-08T12:31:12.472Z,102003.47
2023-04-08T12:33:44.360Z,102007.72
2023-04-08T12:36:14.440Z,102005.09
2023-04-08T12:38:42.241Z,102008.09
2023-04-08T12:41:10.187Z,102003.69
2023-04-08T12:43:39.093Z,102011.06
2023-04-08T12:46:07.029Z,102009.44
2023-04-08T12:48:34.887Z,101998.75
2023-04-08T12:51:04.061Z,101994.56
2023-04-08T12:53:32.526Z,102003.19
2023-04-08T12:56:00.434Z,102004.19
2023-04-08T12:58:28.398Z,102010.13
2023-04-08T13:00:56.279Z,102004.59
2023-04-08T13:03:26.277Z,101994.34
2023-04-08T13:05:54.287Z,102005.72
2023-04-08T13:08:23.559Z,102005.53
2023-04-08T13:10:51.486Z,102001.72
2023-04-08T13:13:19.166Z,101987.59
2023-04-08T13:15:47.187Z,101988.03
2023-04-08T13:18:15.369Z,101996.94
2023-04-08T13:20:43.154Z,101990.53
2023-04-08T13:23:11.012Z,101999.59
2023-04-08T13:25:40.100Z,101986.09
2023-04-08T13:28:07.897Z,101980.50
2023-04-08T13:30:36.126Z,101978.44
2023-04-08T13:33:04.014Z,101975.16
2023-04-08T13:35:31.884Z,101976.69
2023-04-08T13:37:59.902Z,101975.09
2023-04-08T13:40:28.096Z,101971.47
2023-04-08T13:42:57.297Z,101977.28
2023-04-08T13:45:25.379Z,101989.97
2023-04-08T13:47:53.273Z,101983.06
2023-04-08T13:50:21.120Z,101985.19
2023-04-08T13:52:49.096Z,101978.25
2023-04-08T13:55:17.278Z,101971.00
2023-04-08T13:57:45.016Z,101974.44
2023-04-08T14:00:15.415Z,101975.00
2023-04-08T14:02:43.546Z,101976.81
2023-04-08T14:05:11.612Z,101974.66
2023-04-08T14:07:39.515Z,101974.69
2023-04-08T14:10:08.723Z,101969.44
2023-04-08T14:12:36.469Z,101968.22
2023-04-08T14:15:04.414Z,101962.25
2023-04-08T14:17:34.946Z,101960.94
2023-04-08T14:20:02.836Z,101966.25
2023-04-08T14:22:30.576Z,101967.75
2023-04-08T14:24:58.328Z,101964.19
2023-04-08T14:27:26.297Z,101966.06
2023-04-08T14:29:54.221Z,101965.53
2023-04-08T14:32:21.941Z,101962.25
2023-04-08T14:34:51.758Z,101958.91
2023-04-08T14:37:19.658Z,101955.63
2023-04-08T14:39:47.582Z,101959.03
2023-04-08T14:42:17.133Z,101961.03
2023-04-08T14:44:45.177Z,101948.47
2023-04-08T14:47:13.192Z,101955.97
2023-04-08T14:49:41.084Z,101958.53
2023-04-08T14:52:10.539Z,101953.69
2023-04-08T14:54:38.871Z,101961.91
2023-04-08T14:57:06.895Z,101959.97
2023-04-08T14:59:34.782Z,101956.00
2023-04-08T15:02:02.802Z,101963.19
2023-04-08T15:04:30.718Z,101959.34
2023-04-08T15:06:58.622Z,101959.06
2023-04-08T15:09:27.940Z,101957.28
2023-04-08T15:11:56.402Z,101959.44
2023-04-08T15:14:24.239Z,101957.84
2023-04-08T15:16:52.120Z,101961.75
2023-04-08T15:19:20.498Z,101964.31
2023-04-08T15:21:48.366Z,101959.56
2023-04-08T15:24:16.232Z,101965.31
2023-04-08T15:26:45.554Z,101970.75
2023-04-08T15:29:13.591Z,101963.22
2023-04-08T15:31:41.679Z,101961.28
2023-04-08T15:34:09.555Z,101958.91
2023-04-08T15:36:37.706Z,101958.22
2023-04-08T15:39:06.162Z,101960.00
2023-04-08T15:41:34.024Z,101960.75
2023-04-08T15:44:03.263Z,101961.41
2023-04-08T15:46:31.074Z,101958.47
2023-04-08T15:49:00.219Z,101962.03
2023-04-08T15:51:29.136Z,101968.59
2023-04-08T15:53:57.517Z,101967.53
2023-04-08T15:56:26.933Z,101971.16
2023-04-08T15:58:54.875Z,101969.72
2023-04-08T16:01:24.188Z,101969.94
2023-04-08T16:03:52.423Z,101972.19
2023-04-08T16:06:20.368Z,101970.28
2023-04-08T16:08:48.770Z,101972.53
2023-04-08T16:11:17.605Z,101965.97
2023-04-08T16:13:46.586Z,101972.13
2023-04-08T16:16:14.565Z,101966.16
2023-04-08T16:18:46.094Z,101975.84
2023-04-08T16:21:15.317Z,101972.00
2023-04-08T16:23:43.066Z,101977.34
2023-04-08T16:26:10.860Z,101975.63
2023-04-08T16:28:39.898Z,101976.50
2023-04-08T16:31:08.075Z,101978.31
2023-04-08T16:33:35.888Z,101985.50
2023-04-08T16:36:05.453Z,101988.13
2023-04-08T16:38:34.038Z,101986.81
2023-04-08T16:41:02.004Z,101997.50
2023-04-08T16:43:31.860Z,101999.81
2023-04-08T16:45:59.740Z,102001.31
2023-04-08T16:48:27.751Z,102009.56
2023-04-08T16:50:55.490Z,102012.41
2023-04-08T16:53:24.811Z,102022.19
2023-04-08T16:55:52.610Z,102031.56
2023-04-08T16:58:20.476Z,102032.00
2023-04-08T17:00:48.362Z,102036.72
2023-04-08T17:03:16.265Z,102049.53
2023-04-08T17:05:44.157Z,102061.66
2023-04-08T17:08:21.446Z,102056.97
2023-04-08T17:10:51.768Z,102066.25
2023-04-08T17:13:19.804Z,102069.00
2023-04-08T17:15:48.290Z,102073.56
2023-04-08T17:18:16.496Z,102075.97
2023-04-08T17:20:44.869Z,102081.34
2023-04-08T17:23:12.845Z,102086.19
2023-04-08T17:25:40.821Z,102087.41
2023-04-08T17:28:10.091Z,102090.78
2023-04-08T17:30:39.621Z,102102.88
2023-04-08T17:33:07.427Z,102110.47
2023-04-08T17:35:36.064Z,102114.97
2023-04-08T17:38:04.190Z,102119.63
2023-04-08T17:40:32.217Z,102120.69
2023-04-08T17:43:00.100Z,102120.69
2023-04-08T17:45:29.164Z,102132.13
2023-04-08T17:47:58.781Z,102135.72
2023-04-08T17:50:26.770Z,102142.56
2023-04-08T17:52:54.616Z,102143.53
2023-04-08T17:55:22.655Z,102154.63
2023-04-08T17:57:50.724Z,102161.16
2023-04-08T18:00:18.845Z,102158.56
2023-04-08T18:02:50.360Z,102167.22
2023-04-08T18:05:18.204Z,102174.22
2023-04-08T18:07:46.106Z,102177.31
2023-04-08T18:10:14.057Z,102178.84
2023-04-08T18:12:41.884Z,102188.03
2023-04-08T18:15:10.614Z,102184.84
2023-04-08T18:17:38.503Z,102197.22
2023-04-08T18:20:09.321Z,102210.91
2023-04-08T18:22:37.185Z,102213.09
2023-04-08T18:25:05.584Z,102207.69
2023-04-08T18:27:33.427Z,102218.94
2023-04-08T18:30:01.172Z,102220.97
2023-04-08T18:32:28.938Z,102221.97
2023-04-08T18:34:56.835Z,102221.16
2023-04-08T18:37:26.130Z,102226.13
2023-04-08T18:39:53.867Z,102232.69
2023-04-08T18:42:21.695Z,102236.09
2023-04-08T18:44:49.462Z,102240.47
2023-04-08T18:47:18.052Z,102237.28
2023-04-08T18:49:46.399Z,102240.06
2023-04-08T18:52:14.331Z,102238.78
2023-04-08T18:54:43.535Z,102247.56
2023-04-08T18:57:11.337Z,102250.84
2023-04-08T18:59:39.170Z,102250.03
2023-04-08T19:02:06.981Z,102255.94
2023-04-08T19:04:35.027Z,102253.66
2023-04-08T19:07:02.916Z,102265.41
2023-04-08T19:09:31.042Z,102258.44
2023-04-08T19:12:00.219Z,102259.84
2023-04-08T19:14:28.215Z,102265.00
2023-04-08T19:16:55.958Z,102266.28
2023-04-08T19:19:23.741Z,102270.22
2023-04-08T19:21:51.475Z,102267.00
2023-04-08T19:24:20.791Z,102255.25
2023-04-08T19:26:50.706Z,102259.00
2023-04-08T19:29:22.956Z,102256.81
2023-04-08T19:31:51.158Z,102261.22
2023-04-08T19:34:19.113Z,102255.31
2023-04-08T19:36:47.724Z,102261.72
2023-04-08T19:39:15.640Z,102265.03
2023-04-08T19:41:43.362Z,102266.41
2023-04-08T19:44:11.507Z,102267.41
2023-04-08T19:46:40.953Z,102262.13
2023-04-08T19:49:08.826Z,102268.50
2023-04-08T19:51:36.566Z,102270.97
2023-04-08T19:54:04.545Z,102262.41
2023-04-08T19:56:34.075Z,102268.31
2023-04-08T19:59:02.465Z,102269.19
2023-04-08T20:01:31.107Z,102269.78
2023-04-08T20:04:00.468Z,102265.41
2023-04-08T20:06:28.432Z,102275.53
2023-04-08T20:08:56.344Z,102271.75
2023-04-08T20:11:24.241Z,102273.56
2023-04-08T20:13:52.050Z,102269.97
2023-04-08T20:16:20.905Z,102278.31
2023-04-08T20:18:48.931Z,102274.75
2023-04-08T20:21:18.656Z,102273.38
2023-04-08T20:23:46.484Z,102273.75
2023-04-08T20:26:15.586Z,102276.22
2023-04-08T20:28:44.845Z,102275.16
2023-04-08T20:31:13.132Z,102277.00
2023-04-08T20:33:43.998Z,102277.75
2023-04-08T20:36:13.378Z,102275.03
2023-04-08T20:38:42.706Z,102277.31
2023-04-08T20:41:11.219Z,102273.44
2023-04-08T20:43:39.527Z,102267.25
2023-04-08T20:46:07.627Z,102268.72
2023-04-08T20:48:36.075Z,102269.94
2023-04-08T20:51:03.915Z,102272.56
2023-04-08T20:53:31.991Z,102280.59
2023-04-08T20:56:01.597Z,102277.31
2023-04-08T20:58:29.369Z,102272.44
2023-04-08T21:00:58.865Z,102282.91
2023-04-08T21:03:26.845Z,102281.44
2023-04-08T21:05:55.529Z,102281.28
2023-04-08T21:08:23.629Z,102285.91
2023-04-08T21:10:51.508Z,102278.59
2023-04-08T21:13:20.763Z,102283.47
2023-04-08T21:15:48.466Z,102286.06
2023-04-08T21:18:16.194Z,102284.03
2023-04-08T21:20:44.105Z,102287.28
2023-04-08T21:23:12.922Z,102288.88
2023-04-08T21:25:40.969Z,102287.59
2023-04-08T21:28:08.989Z,102292.91
2023-04-08T21:30:38.076Z,102284.44
2023-04-08T21:33:05.854Z,102292.00
2023-04-08T21:35:33.674Z,102292.13
2023-04-08T21:38:01.489Z,102284.19
2023-04-08T21:40:29.249Z,102290.47
2023-04-08T21:42:57.080Z,102284.66
2023-04-08T21:45:24.819Z,102285.06
2023-04-08T21:47:54.161Z,102284.44
2023-04-08T21:50:22.165Z,102288.25
2023-04-08T21:52:50.089Z,102278.84
2023-04-08T21:55:18.008Z,102287.75
2023-04-08T21:57:45.725Z,102293.94
2023-04-08T22:00:15.087Z,102290.59
2023-04-08T22:02:42.958Z,102297.78
2023-04-08T22:05:14.980Z,102291.50
2023-04-08T22:07:45.739Z,102286.09
2023-04-08T22:10:20.184Z,102285.53
2023-04-08T22:12:47.956Z,102290.56
2023-04-08T22:15:15.750Z,102281.81
2023-04-08T22:17:43.548Z,102277.53
2023-04-08T22:20:13.289Z,102273.81
2023-04-08T22:22:40.988Z,102281.84
2023-04-08T22:25:09.570Z,102277.34
2023-04-08T22:27:37.652Z,102278.28
2023-04-08T22:30:09.262Z,102276.81
2023-04-08T22:32:37.088Z,102274.00
2023-04-08T22:35:05.650Z,102276.50
2023-04-08T22:37:34.843Z,102271.13
2023-04-08T22:40:02.766Z,102277.66
2023-04-08T22:42:30.748Z,102270.88
2023-04-08T22:44:58.502Z,102272.34
2023-04-08T22:47:26.438Z,102274.94
2023-04-08T22:49:54.306Z,102271.69
2023-04-08T22:52:22.030Z,102264.06
2023-04-08T22:54:52.171Z,102260.13
2023-04-08T22:57:19.960Z,102263.28
2023-04-08T22:59:47.710Z,102262.03
2023-04-08T23:02:15.716Z,102260.41
2023-04-08T23:04:43.538Z,102263.91
2023-04-08T23:07:11.325Z,102270.88
2023-04-08T23:09:39.138Z,102272.16
2023-04-08T23:12:08.581Z,102272.50
2023-04-08T23:14:36.324Z,102277.34
2023-04-08T23:17:05.546Z,102273.59
2023-04-08T23:19:33.412Z,102279.53
2023-04-08T23:22:01.331Z,102272.75
2023-04-08T23:24:29.080Z,102275.75
2023-04-08T23:26:57.354Z,102280.75
2023-04-08T23:29:26.529Z,102274.56
2023-04-08T23:31:54.424Z,102278.53
2023-04-08T23:34:22.189Z,102276.91
2023-04-08T23:36:52.580Z,102274.31
2023-04-08T23:39:20.597Z,102276.91
2023-04-08T23:41:48.574Z,102279.47
2023-04-08T23:44:16.428Z,102276.47
2023-04-08T23:46:45.630Z,102274.47
2023-04-08T23:49:13.440Z,102281.84
2023-04-08T23:51:41.355Z,102283.25
2023-04-08T23:54:09.139Z,102272.94
2023-04-08T23:56:36.929Z,102276.28
2023-04-08T23:59:04.732Z,102281.03
